Modulus3 — UBLG8 — position and weather

sailwx.info

Track history (hours):
 
Tides and Currents Weather Stations Pressure Air Temp Water Temp Dewpoint Dewpoint Depression Visibility Wind Speed Wind Dir Waves Ship Positions

Modulus3

Last reported at 2017-Dec-23 19:58 UTC. Time now 2018-Jan-20 03:42 UTC.
Position N 45°08' E 036°29'.
Warning: this ship's position is 27 days out of date.

Length 90 m; draft 4.5 m.

Type: Cargo ship. MMSI: 273357900.

Date/timePositionNaut miles runAvg speedWind from/ knotsBaromVisibWave heightAir tempDewpointWater temp
2017-Dec-23 19:58N 45°08' E 036°29'4 7.7
2017-Dec-23 19:30N 45°12' E 036°28'4 7.2
2017-Dec-23 19:00N 45°15' E 036°28'4 6.4
2017-Dec-23 18:25N 45°19' E 036°31'3 8.5
2017-Dec-23 18:00N 45°20' E 036°35'4 7.9
2017-Dec-23 17:30N 45°22' E 036°40'3 5.9
2017-Dec-23 17:00N 45°25' E 036°41'2 4.8
2017-Dec-23 16:30N 45°27' E 036°39'1 1.0
2017-Dec-23 15:53N 45°27' E 036°39'0 0.0
2017-Dec-23 15:29N 45°27' E 036°39'0 0.0
2017-Dec-23 14:59N 45°27' E 036°39'0 0.0
2017-Dec-23 14:29N 45°27' E 036°39'1 2.2
2017-Dec-23 14:00N 45°28' E 036°39'  
2017-Dec-17 18:28N 45°32' E 036°46'4 9.3
2017-Dec-17 18:00N 45°29' E 036°43'4 8.5
2017-Dec-17 17:30N 45°25' E 036°41'3 6.7
2017-Dec-17 17:00N 45°22' E 036°40'3 6.6
2017-Dec-17 16:30N 45°20' E 036°35'3 6.3
2017-Dec-17 16:00N 45°19' E 036°31'3 5.9
2017-Dec-17 15:28N 45°16' E 036°29'3 5.1
2017-Dec-17 14:58N 45°14' E 036°29'3 4.1
2017-Dec-17 14:17N 45°11' E 036°29'1 2.2
2017-Dec-17 13:53N 45°11' E 036°30'0 0.0
2017-Dec-17 12:27N 45°11' E 036°30'0 0.0
2017-Dec-17 11:57N 45°11' E 036°30'0 0.0
2017-Dec-17 11:27N 45°11' E 036°30'0 0.0
2017-Dec-17 10:57N 45°11' E 036°30'0 0.0
2017-Dec-17 10:09N 45°11' E 036°30'0 0.0
2017-Dec-17 09:57N 45°11' E 036°30'0 0.0
2017-Dec-17 08:03N 45°11' E 036°30'0 0.1
2017-Dec-17 07:51N 45°11' E 036°30'0 0.1
2017-Dec-17 07:30N 45°11' E 036°30'0 0.1
2017-Dec-17 07:00N 45°11' E 036°30'0 0.0
2017-Dec-17 06:28N 45°11' E 036°30'0 0.0
2017-Dec-17 05:55N 45°11' E 036°30'0 0.0
2017-Dec-17 05:25N 45°11' E 036°30'0 0.1
2017-Dec-17 04:58N 45°11' E 036°30'0 0.0
2017-Dec-17 04:22N 45°11' E 036°30'0 0.0
2017-Dec-17 03:55N 45°11' E 036°30'0 0.0
2017-Dec-17 03:25N 45°11' E 036°30'414 8.8
2017-Dec-15 04:37N 40°59' E 028°60'7 7.9
2017-Dec-15 03:41N 40°53' E 028°56'3 2.3
2017-Dec-15 02:24N 40°50' E 028°57'  
Track history (hours):
 
Tides and Currents Weather Stations Pressure Air Temp Water Temp Dewpoint Dewpoint Depression Visibility Wind Speed Wind Dir Waves Ship Positions

Modulus3

Last reported at 2017-Dec-23 19:58 UTC. Time now 2018-Jan-20 03:42 UTC.
Position N 45°08' E 036°29'.
Warning: this ship's position is 27 days out of date.

Length 90 m; draft 4.5 m.

Type: Cargo ship. MMSI: 273357900.

Date/timePositionNaut miles runAvg speedWind from/ knotsBaromVisibWave heightAir tempDewpointWater temp
2017-Dec-23 19:58N 45°08' E 036°29'4 7.7
2017-Dec-23 19:30N 45°12' E 036°28'4 7.2
2017-Dec-23 19:00N 45°15' E 036°28'4 6.4
2017-Dec-23 18:25N 45°19' E 036°31'3 8.5
2017-Dec-23 18:00N 45°20' E 036°35'4 7.9
2017-Dec-23 17:30N 45°22' E 036°40'3 5.9
2017-Dec-23 17:00N 45°25' E 036°41'2 4.8
2017-Dec-23 16:30N 45°27' E 036°39'1 1.0
2017-Dec-23 15:53N 45°27' E 036°39'0 0.0
2017-Dec-23 15:29N 45°27' E 036°39'0 0.0
2017-Dec-23 14:59N 45°27' E 036°39'0 0.0
2017-Dec-23 14:29N 45°27' E 036°39'1 2.2
2017-Dec-23 14:00N 45°28' E 036°39'  
2017-Dec-17 18:28N 45°32' E 036°46'4 9.3
2017-Dec-17 18:00N 45°29' E 036°43'4 8.5
2017-Dec-17 17:30N 45°25' E 036°41'3 6.7
2017-Dec-17 17:00N 45°22' E 036°40'3 6.6
2017-Dec-17 16:30N 45°20' E 036°35'3 6.3
2017-Dec-17 16:00N 45°19' E 036°31'3 5.9
2017-Dec-17 15:28N 45°16' E 036°29'3 5.1
2017-Dec-17 14:58N 45°14' E 036°29'3 4.1
2017-Dec-17 14:17N 45°11' E 036°29'1 2.2
2017-Dec-17 13:53N 45°11' E 036°30'0 0.0
2017-Dec-17 12:27N 45°11' E 036°30'0 0.0
2017-Dec-17 11:57N 45°11' E 036°30'0 0.0
2017-Dec-17 11:27N 45°11' E 036°30'0 0.0
2017-Dec-17 10:57N 45°11' E 036°30'0 0.0
2017-Dec-17 10:09N 45°11' E 036°30'0 0.0
2017-Dec-17 09:57N 45°11' E 036°30'0 0.0
2017-Dec-17 08:03N 45°11' E 036°30'0 0.1
2017-Dec-17 07:51N 45°11' E 036°30'0 0.1
2017-Dec-17 07:30N 45°11' E 036°30'0 0.1
2017-Dec-17 07:00N 45°11' E 036°30'0 0.0
2017-Dec-17 06:28N 45°11' E 036°30'0 0.0
2017-Dec-17 05:55N 45°11' E 036°30'0 0.0
2017-Dec-17 05:25N 45°11' E 036°30'0 0.1
2017-Dec-17 04:58N 45°11' E 036°30'0 0.0
2017-Dec-17 04:22N 45°11' E 036°30'0 0.0
2017-Dec-17 03:55N 45°11' E 036°30'0 0.0
2017-Dec-17 03:25N 45°11' E 036°30'414 8.8
2017-Dec-15 04:37N 40°59' E 028°60'7 7.9
2017-Dec-15 03:41N 40°53' E 028°56'3 2.3
2017-Dec-15 02:24N 40°50' E 028°57'  

Dump ship's entire track history